Latest Coastal Weather Observations for Cairns

IDQ60701

Issued at 8:02 pm EST Friday 19 July 2019 (issued every 10 minutes, with the page automatically refreshed every 10 minutes)

About coastal observations | Map of coastal stations | Coastal observations for QLD | Marine services | Other Formats
Station Details ID: 031011 Name: CAIRNS AERO Lat: -16.87 Lon: 145.75 Height: 2.22 m
Data from the previous 72 hours. | See also: Recent months at Cairns
Date/Time
EST
Wind Sea
Height
m
Swell Vis
km
Cloud Weather Temp
°C
Press
hPa
Rain since
9am
mm
Dir  Spd
kts
Gust
kts
Height
m
Period
s
Dir
19/07:30pm S 7 10 - - - - 10 Partly cloudy - 18.8 1017.4 0.0
19/07:00pm SSE 8 10 - - - - 10 Partly cloudy - 19.0 1017.3 0.0
19/06:30pm SSE 9 13 - - - - 10 Cloudy - 19.5 1017.2 0.0
19/06:00pm SE 11 15 - - - - 10 Mostly cloudy - 19.8 1016.9 0.0
19/05:30pm SE 14 18 - - - - 10 Partly cloudy - 20.7 1016.8 0.0
19/05:00pm SE 14 17 - - - - 10 - - 21.4 1016.5 0.0
19/04:30pm SE 14 18 - - - - 10 - - 22.2 1016.3 0.0
19/04:00pm SE 15 17 - - - - 10 - - 22.9 1016.1 0.0
19/03:30pm SE 15 18 - - - - 10 - - 23.1 1016.1 0.0
19/03:00pm ESE 13 18 - - - - 10 - - 23.3 1016.1 0.0
19/02:30pm ESE 15 20 - - - - 10 - - 23.9 1016.1 0.0
19/02:00pm ESE 13 17 - - - - 10 - - 24.4 1016.3 0.0
19/01:30pm ESE 13 17 - - - - 10 - - 24.0 1016.6 0.0
19/01:00pm ESE 13 17 - - - - 10 - - 23.7 1017.1 0.0
19/12:30pm SE 14 19 - - - - 10 - - 23.8 1017.5 0.0
19/12:00pm SE 14 18 - - - - 10 - - 24.1 1018.0 0.0
19/11:30am SE 16 20 - - - - 10 - - 23.5 1018.2 0.0
19/11:00am SSE 10 15 - - - - 10 - - 22.8 1018.6 0.0
19/10:30am SSE 9 15 - - - - 10 - - 22.3 1018.9 0.0
19/10:00am SSE 9 14 - - - - 10 - - 21.4 1019.0 0.0
19/09:30am SSE 8 13 - - - - 10 - - 20.9 1018.9 0.0
19/09:00am SE 11 14 - - - - 10 - - 16.9 1018.8 0.0
19/08:30am SE 11 15 - - - - 10 - - 16.0 1018.7 0.0
19/08:00am SSE 11 15 - - - - 10 - - 14.5 1018.5 0.0
19/07:30am SSE 12 15 - - - - 10 - - 13.7 1018.2 0.0
19/07:00am SSE 9 12 - - - - 10 - - 13.6 1017.8 0.0
19/06:30am SSE 9 14 - - - - 10 - - 13.1 1017.4 0.0
19/06:00am S 9 13 - - - - 10 - - 13.8 1017.4 0.0
19/05:30am S 5 8 - - - - 10 - - 13.7 1017.2 0.0
19/05:00am W 4 6 - - - - 10 - - 11.6 1017.2 0.0
19/04:30am SSW 5 7 - - - - 10 - - 13.2 1017.2 0.0
19/04:00am SSE 9 13 - - - - 10 - - 14.4 1017.0 0.0
19/03:30am SSE 9 13 - - - - 10 - - 14.7 1017.1 0.0
19/03:00am SSE 9 14 - - - - 10 - - 14.3 1017.2 0.0
19/02:30am SSE 11 14 - - - - 10 - - 14.5 1017.3 0.0
19/02:00am SSE 6 11 - - - - 10 - - 14.7 1017.5 0.0
19/01:30am W 4 5 - - - - 10 - - 13.3 1017.7 0.0
19/01:00am SSE 6 9 - - - - 10 - - 14.6 1017.9 0.0
19/12:30am S 5 7 - - - - 10 - - 14.2 1018.0 0.0
19/12:00am SSE 9 12 - - - - 10 - - 15.3 1018.1 0.0
 
Date/Time
EST
Wind Sea
Height
m
Swell Vis
km
Cloud Weather Temp
°C
Press
hPa
Rain since
9am
mm
Dir  Spd
kts
Gust
kts
Height
m
Period
s
Dir
18/11:30pm SSE 5 8 - - - - 10 - - 14.4 1018.3 0.0
18/11:00pm SW 3 5 - - - - 10 - - 14.2 1018.4 0.0
18/10:30pm SSE 5 6 - - - - 10 - - 14.6 1018.5 0.0
18/10:00pm SSE 5 7 - - - - 10 - - 15.1 1018.4 0.0
18/09:30pm ESE 5 7 - - - - 10 - - 15.9 1018.2 0.0
18/09:00pm SSE 7 10 - - - - 10 - - 17.2 1017.8 0.0
18/08:30pm SSW 6 10 - - - - 10 - - 18.7 1017.5 0.0
18/08:00pm S 5 8 - - - - 10 - - 18.7 1017.4 0.0
18/07:30pm S 5 9 - - - - 10 - - 19.2 1017.1 0.0
18/07:00pm S 7 11 - - - - 10 - - 19.2 1016.9 0.0
18/06:30pm SSE 7 11 - - - - 10 - - 19.2 1016.7 0.0
18/06:00pm SSE 6 9 - - - - 10 - - 19.4 1016.6 0.0
18/05:30pm SSE 10 14 - - - - 10 - - 21.1 1016.3 0.0
18/05:00pm SE 11 15 - - - - 10 - - 22.3 1016.1 0.0
18/04:30pm SE 12 16 - - - - 10 - - 23.1 1015.9 0.0
18/04:00pm SE 13 17 - - - - 10 - - 23.9 1015.8 0.0
18/03:30pm SE 14 18 - - - - 10 - - 23.9 1015.7 0.0
18/03:00pm SE 14 18 - - - - 10 - - 24.5 1015.7 0.0
18/02:30pm ESE 15 19 - - - - 10 - - 24.6 1015.7 0.0
18/02:00pm ESE 14 19 - - - - 10 - - 25.0 1016.0 0.0
18/01:30pm ESE 13 17 - - - - 10 - - 24.6 1016.2 0.0
18/01:00pm ESE 14 19 - - - - 10 - - 24.7 1016.8 0.0
18/12:30pm ESE 11 15 - - - - 10 - - 24.6 1017.4 0.0
18/12:00pm SE 15 19 - - - - 10 - - 24.5 1018.0 0.0
18/11:30am SE 15 19 - - - - 10 - - 24.2 1018.4 0.0
18/11:00am SE 11 16 - - - - 10 - - 23.7 1018.7 0.0
18/10:30am S 8 13 - - - - 10 - - 23.0 - 0.0
18/10:00am S 9 14 - - - - 10 - - 21.9 1018.3 0.0
18/09:30am S 10 15 - - - - 10 - - 21.3 1018.3 0.0
18/09:00am S 10 17 - - - - 10 - - 20.6 1018.2 0.0
18/08:30am SE 9 14 - - - - 10 - - 18.5 1018.0 0.0
18/08:00am SSE 9 14 - - - - 10 - - 17.8 1017.6 0.0
18/07:30am SE 8 11 - - - - 10 - - 15.2 1017.3 0.0
18/07:00am SE 9 11 - - - - 10 - - 14.6 1017.1 0.0
18/06:30am SE 3 6 - - - - 10 - - 14.2 1016.9 0.0
18/06:00am SE 9 12 - - - - 10 - - 14.8 1016.6 0.0
18/05:30am SSE 8 11 - - - - 10 - - 14.1 1016.3 0.0
18/05:00am SSE 11 14 - - - - 10 - - 14.2 1016.1 0.0
18/04:30am S 5 7 - - - - 10 - - 13.7 1016.0 0.0
18/04:00am SE 11 14 - - - - 10 - - 14.6 1015.9 0.0
18/03:30am SE 10 12 - - - - 10 - - 14.6 1015.9 0.0
18/03:00am S 3 8 - - - - 10 - - 14.2 1016.8 0.0
18/02:30am CALM 0 3 - - - - 10 - - 14.1 1017.1 0.0
18/02:00am CALM 0 0 - - - - 10 - - 13.8 1017.2 0.0
18/01:30am E 4 6 - - - - 10 - - 14.5 1017.5 0.0
18/01:00am SSE 5 7 - - - - 10 - - 15.5 1017.6 0.0
18/12:30am S 6 14 - - - - 10 - - 17.2 1017.7 0.0
18/12:00am SSE 8 11 - - - - 10 - - 16.4 1017.7 0.0
 
Date/Time
EST
Wind Sea
Height
m
Swell Vis
km
Cloud Weather Temp
°C
Press
hPa
Rain since
9am
mm
Dir  Spd
kts
Gust
kts
Height
m
Period
s
Dir
17/11:30pm SSE 7 12 - - - - 10 - - 17.4 1017.8 0.0
17/11:00pm S 10 15 - - - - 10 - - 18.0 1017.8 0.0
17/10:30pm S 11 17 - - - - 10 - - 17.7 1018.0 0.0
17/10:00pm S 10 15 - - - - 10 - - 18.0 1018.2 0.0
17/09:30pm S 10 15 - - - - 10 - - 17.9 1018.4 0.0
17/09:00pm S 10 15 - - - - 10 - - 18.1 1018.1 0.0
17/08:30pm S 8 12 - - - - 10 - - 18.1 1017.8 0.0
17/08:00pm S 9 13 - - - - 10 - - 18.3 1017.5 0.0
17/07:30pm SSE 8 12 - - - - 10 - - 18.7 1017.2 0.0
17/07:00pm SSW 5 9 - - - - 10 - - 18.5 1017.1 0.0
17/06:30pm S 3 5 - - - - 10 - - 18.4 1016.6 0.0
17/06:00pm SSE 8 11 - - - - 10 - - 19.7 1016.6 0.0
17/05:30pm SE 11 13 - - - - 10 - - 20.6 1016.1 0.0
17/05:00pm SE 13 15 - - - - 10 - - 21.6 1015.9 0.0
17/04:30pm SE 12 15 - - - - 10 - - 22.2 1015.6 0.0
17/04:00pm SE 14 16 - - - - 10 - - 23.0 1015.4 0.0
17/03:30pm SE 14 16 - - - - 10 - - 23.3 1015.4 0.0
17/03:00pm ESE 12 16 - - - - 10 - - 23.6 1015.7 0.0
17/02:30pm SE 12 15 - - - - 10 - - 24.4 1015.7 0.0
17/02:00pm SE 11 21 - - - - 10 - - 24.3 1016.1 0.0
17/01:30pm SE 14 18 - - - - 10 - - 24.0 1016.5 0.0
17/01:00pm SE 12 17 - - - - 10 Partly cloudy - 23.9 1017.2 0.0
17/12:30pm SE 15 19 - - - - 10 Partly cloudy - 23.7 1017.6 0.0
17/12:00pm SE 15 20 - - - - 10 Partly cloudy - 23.9 1018.2 0.0
17/11:30am SSE 11 15 - - - - 10 Partly cloudy - 22.4 1018.7 0.0
17/11:00am SSE 8 16 - - - - 10 Cloudy - 21.5 1018.9 0.0
17/10:30am S 8 14 - - - - 10 Partly cloudy - 20.6 1019.1 0.0
17/10:00am S 10 15 - - - - 10 Cloudy - 20.3 1019.1 0.0
17/09:30am S 9 15 - - - - 10 Cloudy - 20.3 1019.2 0.0
17/09:00am S 9 15 - - - - 10 Cloudy - 19.9 1019.0 0.0
17/08:30am S 11 16 - - - - 10 Cloudy - 19.2 1018.6 0.0
17/08:00am S 11 18 - - - - 10 Cloudy - 18.9 1018.4 0.0
17/07:30am S 8 14 - - - - 10 Cloudy - 18.4 1018.1 0.0
17/07:00am SE 11 15 - - - - 10 Cloudy - 14.0 1018.0 0.0
17/06:30am SE 8 12 - - - - 10 Partly cloudy - 14.7 1017.6 0.0
17/06:00am SE 10 13 - - - - 10 Mostly cloudy - 13.3 1017.5 0.0
17/05:30am SE 11 15 - - - - 10 Partly cloudy - 13.2 1017.4 0.0
17/05:00am SE 10 13 - - - - 10 - - 12.9 1017.1 0.0
17/04:30am SE 10 12 - - - - 10 - - 13.3 1016.9 0.0
17/04:00am SE 11 13 - - - - 10 - - 13.7 1016.9 0.0
17/03:30am SE 10 11 - - - - 10 - - 13.7 1016.8 0.0
17/03:00am SE 11 14 - - - - 10 - - 13.8 1017.0 0.0
17/02:30am SE 10 13 - - - - 10 - - 14.1 1017.1 0.0
17/02:00am SSE 11 13 - - - - 10 - - 14.5 1017.4 0.0
17/01:30am SSE 10 13 - - - - 10 - - 14.4 1017.7 0.0
17/01:00am SSE 10 11 - - - - 10 - - 15.2 1018.1 0.0
17/12:30am SE 9 11 - - - - 10 - - 14.5 1018.4 0.0
17/12:00am SE 9 11 - - - - 10 - - 14.6 1018.6 0.0
 
Date/Time
EST
Wind Sea
Height
m
Swell Vis
km
Cloud Weather Temp
°C
Press
hPa
Rain since
9am
mm
Dir  Spd
kts
Gust
kts
Height
m
Period
s
Dir
16/11:30pm SE 7 9 - - - - 10 - - 14.8 1018.7 0.0
16/11:00pm S 7 10 - - - - 10 - - 16.8 1019.1 0.0
16/10:30pm S 8 12 - - - - 10 - - 17.7 1019.4 0.0
16/10:00pm SE 7 9 - - - - 10 - - 15.9 1019.7 0.0
16/09:30pm SSE 7 11 - - - - 10 - - 16.6 1019.8 0.0
16/09:00pm SSE 7 9 - - - - 10 - - 16.6 1019.7 0.0
16/08:30pm S 8 11 - - - - 10 - - 17.6 1019.6 0.0

Other formats

Comma delimited format used in spreadsheet applications
http://www.bom.gov.au/fwo/IDQ60701/IDQ60701.94287.axf

JavaScript Object Notation format (JSON) in row-major order
http://www.bom.gov.au/fwo/IDQ60701/IDQ60701.94287.json

Data quality

Most of these data are generated automatically and are frequently updated. Quality checks on data are not normally performed. It is possible for incorrect values to appear. Refer to information at About Latest Weather Observations and please check the disclaimer before using these data.